sensor_id;sensor_type;location;lat;lon;timestamp;temperature;humidity
11423;DHT22;5768;51.476;7.210;2023-09-19T00:02:55;16.40;84.90
11423;DHT22;5768;51.476;7.210;2023-09-19T00:08:00;16.40;83.30
11423;DHT22;5768;51.476;7.210;2023-09-19T00:13:04;16.20;82.60
11423;DHT22;5768;51.476;7.210;2023-09-19T00:18:08;16.20;39.50
11423;DHT22;5768;51.476;7.210;2023-09-19T00:23:11;16.20;35.20
11423;DHT22;5768;51.476;7.210;2023-09-19T00:28:14;16.20;81.50
11423;DHT22;5768;51.476;7.210;2023-09-19T00:33:17;16.10;83.30
11423;DHT22;5768;51.476;7.210;2023-09-19T00:38:21;16.10;82.40
11423;DHT22;5768;51.476;7.210;2023-09-19T00:43:28;16.00;81.90
11423;DHT22;5768;51.476;7.210;2023-09-19T00:48:40;15.90;81.50
11423;DHT22;5768;51.476;7.210;2023-09-19T00:53:44;15.90;35.30
11423;DHT22;5768;51.476;7.210;2023-09-19T00:58:49;15.90;30.20
11423;DHT22;5768;51.476;7.210;2023-09-19T01:03:52;15.70;29.40
11423;DHT22;5768;51.476;7.210;2023-09-19T01:08:54;15.70;29.80
11423;DHT22;5768;51.476;7.210;2023-09-19T01:14:02;15.70;29.50
11423;DHT22;5768;51.476;7.210;2023-09-19T01:19:49;15.70;29.40
11423;DHT22;5768;51.476;7.210;2023-09-19T01:25:30;15.70;29.00
11423;DHT22;5768;51.476;7.210;2023-09-19T01:30:57;15.50;29.50
11423;DHT22;5768;51.476;7.210;2023-09-19T01:36:00;15.60;29.20
11423;DHT22;5768;51.476;7.210;2023-09-19T01:41:10;15.60;29.40
11423;DHT22;5768;51.476;7.210;2023-09-19T01:46:19;15.50;29.70
11423;DHT22;5768;51.476;7.210;2023-09-19T01:51:33;15.50;29.90
11423;DHT22;5768;51.476;7.210;2023-09-19T01:56:48;15.40;29.30
11423;DHT22;5768;51.476;7.210;2023-09-19T02:01:55;15.40;29.30
11423;DHT22;5768;51.476;7.210;2023-09-19T02:06:58;15.40;29.30
11423;DHT22;5768;51.476;7.210;2023-09-19T02:12:01;15.40;28.70
11423;DHT22;5768;51.476;7.210;2023-09-19T02:17:06;15.30;29.10
11423;DHT22;5768;51.476;7.210;2023-09-19T02:22:12;15.30;28.60
11423;DHT22;5768;51.476;7.210;2023-09-19T02:27:14;15.20;29.20
11423;DHT22;5768;51.476;7.210;2023-09-19T02:32:19;15.20;28.10
11423;DHT22;5768;51.476;7.210;2023-09-19T02:37:21;15.10;28.30
11423;DHT22;5768;51.476;7.210;2023-09-19T02:42:24;15.20;28.70
11423;DHT22;5768;51.476;7.210;2023-09-19T02:47:28;15.10;28.40
11423;DHT22;5768;51.476;7.210;2023-09-19T02:52:32;15.10;29.00
11423;DHT22;5768;51.476;7.210;2023-09-19T02:57:35;15.10;28.80
11423;DHT22;5768;51.476;7.210;2023-09-19T03:02:42;15.10;28.00
11423;DHT22;5768;51.476;7.210;2023-09-19T03:07:45;15.00;27.60
11423;DHT22;5768;51.476;7.210;2023-09-19T03:12:51;15.10;26.80
11423;DHT22;5768;51.476;7.210;2023-09-19T03:17:55;15.10;26.70
11423;DHT22;5768;51.476;7.210;2023-09-19T03:22:58;15.10;25.90
11423;DHT22;5768;51.476;7.210;2023-09-19T03:28:01;15.10;24.80
11423;DHT22;5768;51.476;7.210;2023-09-19T03:33:07;15.00;24.20
11423;DHT22;5768;51.476;7.210;2023-09-19T03:38:12;15.00;23.90
11423;DHT22;5768;51.476;7.210;2023-09-19T03:43:15;15.00;23.60
11423;DHT22;5768;51.476;7.210;2023-09-19T03:48:19;15.00;23.30
11423;DHT22;5768;51.476;7.210;2023-09-19T03:53:22;15.00;23.40
11423;DHT22;5768;51.476;7.210;2023-09-19T03:58:25;14.90;23.20
11423;DHT22;5768;51.476;7.210;2023-09-19T04:03:29;14.80;23.30
11423;DHT22;5768;51.476;7.210;2023-09-19T04:08:35;14.90;23.40
11423;DHT22;5768;51.476;7.210;2023-09-19T04:13:38;14.80;23.20
11423;DHT22;5768;51.476;7.210;2023-09-19T04:18:41;14.90;23.20
11423;DHT22;5768;51.476;7.210;2023-09-19T04:23:43;14.80;23.50
11423;DHT22;5768;51.476;7.210;2023-09-19T04:28:46;14.80;23.30
11423;DHT22;5768;51.476;7.210;2023-09-19T04:33:49;14.80;23.70
11423;DHT22;5768;51.476;7.210;2023-09-19T04:38:52;14.80;24.10
11423;DHT22;5768;51.476;7.210;2023-09-19T04:43:54;14.80;24.10
11423;DHT22;5768;51.476;7.210;2023-09-19T04:48:58;14.70;24.10
11423;DHT22;5768;51.476;7.210;2023-09-19T04:54:01;14.70;24.40
11423;DHT22;5768;51.476;7.210;2023-09-19T04:59:04;14.70;24.00
11423;DHT22;5768;51.476;7.210;2023-09-19T05:04:08;14.80;24.40
11423;DHT22;5768;51.476;7.210;2023-09-19T05:09:10;14.80;24.70
11423;DHT22;5768;51.476;7.210;2023-09-19T05:14:12;14.80;24.60
11423;DHT22;5768;51.476;7.210;2023-09-19T05:19:16;14.80;24.50
11423;DHT22;5768;51.476;7.210;2023-09-19T05:24:18;14.80;24.80
11423;DHT22;5768;51.476;7.210;2023-09-19T05:29:25;14.80;25.00
11423;DHT22;5768;51.476;7.210;2023-09-19T05:34:28;14.80;25.30
11423;DHT22;5768;51.476;7.210;2023-09-19T05:39:31;14.80;24.90
11423;DHT22;5768;51.476;7.210;2023-09-19T05:44:33;14.90;24.60
11423;DHT22;5768;51.476;7.210;2023-09-19T05:49:38;14.90;24.30
11423;DHT22;5768;51.476;7.210;2023-09-19T05:54:40;14.90;23.40
11423;DHT22;5768;51.476;7.210;2023-09-19T05:59:43;15.10;23.10
11423;DHT22;5768;51.476;7.210;2023-09-19T06:04:47;15.20;22.60
11423;DHT22;5768;51.476;7.210;2023-09-19T06:09:49;15.40;22.30
11423;DHT22;5768;51.476;7.210;2023-09-19T06:14:52;15.40;22.40
11423;DHT22;5768;51.476;7.210;2023-09-19T06:19:56;15.60;21.90
11423;DHT22;5768;51.476;7.210;2023-09-19T06:24:58;15.70;21.50
11423;DHT22;5768;51.476;7.210;2023-09-19T06:30:01;15.60;21.40
11423;DHT22;5768;51.476;7.210;2023-09-19T06:35:05;15.60;21.60
11423;DHT22;5768;51.476;7.210;2023-09-19T06:40:10;15.80;21.40
11423;DHT22;5768;51.476;7.210;2023-09-19T06:45:15;15.90;20.80
11423;DHT22;5768;51.476;7.210;2023-09-19T06:50:21;15.90;20.90
11423;DHT22;5768;51.476;7.210;2023-09-19T06:55:24;15.90;20.40
11423;DHT22;5768;51.476;7.210;2023-09-19T07:00:29;15.90;20.50
11423;DHT22;5768;51.476;7.210;2023-09-19T07:05:35;16.00;20.40
11423;DHT22;5768;51.476;7.210;2023-09-19T07:10:38;16.20;20.00
11423;DHT22;5768;51.476;7.210;2023-09-19T07:15:42;16.40;19.70
11423;DHT22;5768;51.476;7.210;2023-09-19T07:20:48;16.40;20.00
11423;DHT22;5768;51.476;7.210;2023-09-19T07:25:51;16.50;19.80
11423;DHT22;5768;51.476;7.210;2023-09-19T07:30:53;16.60;19.50
11423;DHT22;5768;51.476;7.210;2023-09-19T07:35:57;17.00;19.40
11423;DHT22;5768;51.476;7.210;2023-09-19T07:41:00;16.80;19.30
11423;DHT22;5768;51.476;7.210;2023-09-19T07:46:04;16.90;19.20
11423;DHT22;5768;51.476;7.210;2023-09-19T07:51:11;16.90;19.40
11423;DHT22;5768;51.476;7.210;2023-09-19T07:56:16;16.90;19.30
11423;DHT22;5768;51.476;7.210;2023-09-19T08:01:21;17.00;19.30
11423;DHT22;5768;51.476;7.210;2023-09-19T08:06:26;17.10;19.20
11423;DHT22;5768;51.476;7.210;2023-09-19T08:11:30;17.10;19.20
11423;DHT22;5768;51.476;7.210;2023-09-19T08:16:33;17.50;18.70
11423;DHT22;5768;51.476;7.210;2023-09-19T08:21:37;17.30;18.70
11423;DHT22;5768;51.476;7.210;2023-09-19T08:26:46;17.70;18.20
11423;DHT22;5768;51.476;7.210;2023-09-19T08:31:48;17.70;18.10
11423;DHT22;5768;51.476;7.210;2023-09-19T08:36:53;17.20;18.50
11423;DHT22;5768;51.476;7.210;2023-09-19T08:41:59;17.30;18.70
11423;DHT22;5768;51.476;7.210;2023-09-19T08:47:09;17.40;18.60
11423;DHT22;5768;51.476;7.210;2023-09-19T08:52:19;17.80;18.00
11423;DHT22;5768;51.476;7.210;2023-09-19T08:57:24;17.80;17.70
11423;DHT22;5768;51.476;7.210;2023-09-19T09:02:31;18.40;17.30
11423;DHT22;5768;51.476;7.210;2023-09-19T09:07:37;18.50;16.90
11423;DHT22;5768;51.476;7.210;2023-09-19T09:12:41;18.20;16.80
11423;DHT22;5768;51.476;7.210;2023-09-19T09:17:46;18.30;16.80
11423;DHT22;5768;51.476;7.210;2023-09-19T09:22:53;18.20;16.70
11423;DHT22;5768;51.476;7.210;2023-09-19T09:27:59;18.50;16.50
11423;DHT22;5768;51.476;7.210;2023-09-19T09:33:10;18.70;15.50
11423;DHT22;5768;51.476;7.210;2023-09-19T09:38:16;18.30;15.70
11423;DHT22;5768;51.476;7.210;2023-09-19T09:43:30;18.80;15.50
11423;DHT22;5768;51.476;7.210;2023-09-19T09:48:37;18.30;15.50
11423;DHT22;5768;51.476;7.210;2023-09-19T09:53:41;18.50;15.60
11423;DHT22;5768;51.476;7.210;2023-09-19T09:58:50;18.80;15.40
11423;DHT22;5768;51.476;7.210;2023-09-19T10:03:57;18.90;15.10
11423;DHT22;5768;51.476;7.210;2023-09-19T10:09:03;18.70;14.70
11423;DHT22;5768;51.476;7.210;2023-09-19T10:14:20;18.70;14.80
11423;DHT22;5768;51.476;7.210;2023-09-19T10:19:30;19.40;14.60
11423;DHT22;5768;51.476;7.210;2023-09-19T10:24:40;19.10;14.50
11423;DHT22;5768;51.476;7.210;2023-09-19T10:29:44;18.80;14.70
11423;DHT22;5768;51.476;7.210;2023-09-19T10:34:51;19.20;14.80
11423;DHT22;5768;51.476;7.210;2023-09-19T10:39:57;19.20;14.40
11423;DHT22;5768;51.476;7.210;2023-09-19T10:45:03;19.30;14.50
11423;DHT22;5768;51.476;7.210;2023-09-19T10:50:19;19.80;14.00
11423;DHT22;5768;51.476;7.210;2023-09-19T10:55:26;19.90;13.70
11423;DHT22;5768;51.476;7.210;2023-09-19T11:00:30;19.70;13.60
11423;DHT22;5768;51.476;7.210;2023-09-19T11:06:08;20.20;13.50
11423;DHT22;5768;51.476;7.210;2023-09-19T11:11:40;20.00;13.10
11423;DHT22;5768;51.476;7.210;2023-09-19T11:28:34;19.60;13.30
11423;DHT22;5768;51.476;7.210;2023-09-19T11:33:40;19.90;13.10
11423;DHT22;5768;51.476;7.210;2023-09-19T11:39:00;19.80;13.20
11423;DHT22;5768;51.476;7.210;2023-09-19T11:44:35;20.30;13.00
11423;DHT22;5768;51.476;7.210;2023-09-19T11:49:40;21.50;12.40
11423;DHT22;5768;51.476;7.210;2023-09-19T11:54:43;21.00;12.50
11423;DHT22;5768;51.476;7.210;2023-09-19T11:59:49;20.90;12.50
11423;DHT22;5768;51.476;7.210;2023-09-19T12:04:54;21.10;12.40
11423;DHT22;5768;51.476;7.210;2023-09-19T12:10:03;21.10;12.30
11423;DHT22;5768;51.476;7.210;2023-09-19T12:15:13;21.00;12.30
11423;DHT22;5768;51.476;7.210;2023-09-19T12:20:16;21.50;12.20
11423;DHT22;5768;51.476;7.210;2023-09-19T12:25:20;21.70;12.10
11423;DHT22;5768;51.476;7.210;2023-09-19T12:30:28;21.50;12.00
11423;DHT22;5768;51.476;7.210;2023-09-19T12:35:34;22.30;11.80
11423;DHT22;5768;51.476;7.210;2023-09-19T12:40:36;22.00;11.70
11423;DHT22;5768;51.476;7.210;2023-09-19T12:45:44;22.30;11.50
11423;DHT22;5768;51.476;7.210;2023-09-19T12:51:06;22.50;11.10
11423;DHT22;5768;51.476;7.210;2023-09-19T12:56:11;23.70;11.10
11423;DHT22;5768;51.476;7.210;2023-09-19T13:01:17;23.40;10.90
11423;DHT22;5768;51.476;7.210;2023-09-19T13:06:35;24.50;10.40
11423;DHT22;5768;51.476;7.210;2023-09-19T13:11:41;23.20;10.50
11423;DHT22;5768;51.476;7.210;2023-09-19T13:17:00;24.60;10.20
11423;DHT22;5768;51.476;7.210;2023-09-19T13:22:37;25.10;10.20
11423;DHT22;5768;51.476;7.210;2023-09-19T13:27:42;26.20;9.80
11423;DHT22;5768;51.476;7.210;2023-09-19T13:32:47;26.40;9.60
11423;DHT22;5768;51.476;7.210;2023-09-19T13:37:49;26.20;9.50
11423;DHT22;5768;51.476;7.210;2023-09-19T13:42:52;26.30;9.50
11423;DHT22;5768;51.476;7.210;2023-09-19T13:47:56;27.10;9.40
11423;DHT22;5768;51.476;7.210;2023-09-19T13:52:59;27.40;9.30
11423;DHT22;5768;51.476;7.210;2023-09-19T13:58:01;27.00;9.30
11423;DHT22;5768;51.476;7.210;2023-09-19T14:03:08;25.50;9.70
11423;DHT22;5768;51.476;7.210;2023-09-19T14:08:11;24.90;9.80
11423;DHT22;5768;51.476;7.210;2023-09-19T14:13:13;25.00;10.00
11423;DHT22;5768;51.476;7.210;2023-09-19T14:18:17;23.50;10.10
11423;DHT22;5768;51.476;7.210;2023-09-19T14:23:20;22.30;10.60
11423;DHT22;5768;51.476;7.210;2023-09-19T14:28:23;22.50;10.80
11423;DHT22;5768;51.476;7.210;2023-09-19T14:33:27;22.60;10.60
11423;DHT22;5768;51.476;7.210;2023-09-19T14:38:29;22.10;10.80
11423;DHT22;5768;51.476;7.210;2023-09-19T14:43:34;21.80;11.10
11423;DHT22;5768;51.476;7.210;2023-09-19T14:48:38;22.00;11.00
11423;DHT22;5768;51.476;7.210;2023-09-19T14:53:40;21.70;11.20
11423;DHT22;5768;51.476;7.210;2023-09-19T14:58:43;21.70;11.20
11423;DHT22;5768;51.476;7.210;2023-09-19T15:03:47;21.60;11.30
11423;DHT22;5768;51.476;7.210;2023-09-19T15:08:50;20.90;11.40
11423;DHT22;5768;51.476;7.210;2023-09-19T15:13:52;21.00;11.50
11423;DHT22;5768;51.476;7.210;2023-09-19T15:18:56;20.90;11.50
11423;DHT22;5768;51.476;7.210;2023-09-19T15:23:58;20.60;11.70
11423;DHT22;5768;51.476;7.210;2023-09-19T15:29:01;20.20;11.90
11423;DHT22;5768;51.476;7.210;2023-09-19T15:34:05;20.40;11.90
11423;DHT22;5768;51.476;7.210;2023-09-19T15:39:08;20.50;11.90
11423;DHT22;5768;51.476;7.210;2023-09-19T15:44:13;20.50;11.90
11423;DHT22;5768;51.476;7.210;2023-09-19T15:49:18;20.70;12.00
11423;DHT22;5768;51.476;7.210;2023-09-19T15:54:21;21.10;11.80
11423;DHT22;5768;51.476;7.210;2023-09-19T15:59:23;21.40;11.70
11423;DHT22;5768;51.476;7.210;2023-09-19T16:04:27;22.00;11.50
11423;DHT22;5768;51.476;7.210;2023-09-19T16:09:30;22.20;11.40
11423;DHT22;5768;51.476;7.210;2023-09-19T16:14:32;23.50;11.00
11423;DHT22;5768;51.476;7.210;2023-09-19T16:19:36;23.60;10.70
11423;DHT22;5768;51.476;7.210;2023-09-19T16:24:38;21.70;11.30
11423;DHT22;5768;51.476;7.210;2023-09-19T16:29:40;21.20;11.60
11423;DHT22;5768;51.476;7.210;2023-09-19T16:34:44;20.50;11.80
11423;DHT22;5768;51.476;7.210;2023-09-19T16:39:47;20.10;12.00
11423;DHT22;5768;51.476;7.210;2023-09-19T16:44:50;20.30;12.00
11423;DHT22;5768;51.476;7.210;2023-09-19T16:49:54;20.20;12.10
11423;DHT22;5768;51.476;7.210;2023-09-19T16:54:57;20.30;12.10
11423;DHT22;5768;51.476;7.210;2023-09-19T16:59:59;20.10;12.20
11423;DHT22;5768;51.476;7.210;2023-09-19T17:05:04;20.10;12.30
11423;DHT22;5768;51.476;7.210;2023-09-19T17:10:10;19.90;12.30
11423;DHT22;5768;51.476;7.210;2023-09-19T17:15:13;19.90;12.40
11423;DHT22;5768;51.476;7.210;2023-09-19T17:20:17;19.70;12.50
11423;DHT22;5768;51.476;7.210;2023-09-19T17:25:19;19.60;12.50
11423;DHT22;5768;51.476;7.210;2023-09-19T17:30:22;19.80;12.60
11423;DHT22;5768;51.476;7.210;2023-09-19T17:35:26;19.50;12.70
11423;DHT22;5768;51.476;7.210;2023-09-19T17:40:28;19.50;12.80
11423;DHT22;5768;51.476;7.210;2023-09-19T17:45:32;19.50;12.80
11423;DHT22;5768;51.476;7.210;2023-09-19T17:50:35;19.50;12.80
11423;DHT22;5768;51.476;7.210;2023-09-19T17:55:39;19.40;12.80
11423;DHT22;5768;51.476;7.210;2023-09-19T18:00:42;19.40;12.90
11423;DHT22;5768;51.476;7.210;2023-09-19T18:05:50;19.60;12.90
11423;DHT22;5768;51.476;7.210;2023-09-19T18:10:54;19.40;12.90
11423;DHT22;5768;51.476;7.210;2023-09-19T18:15:56;19.30;12.90
11423;DHT22;5768;51.476;7.210;2023-09-19T18:21:02;19.40;13.00
11423;DHT22;5768;51.476;7.210;2023-09-19T18:26:05;19.40;13.00
11423;DHT22;5768;51.476;7.210;2023-09-19T18:31:08;19.30;12.90
11423;DHT22;5768;51.476;7.210;2023-09-19T18:36:11;19.30;13.00
11423;DHT22;5768;51.476;7.210;2023-09-19T18:41:14;19.30;13.00
11423;DHT22;5768;51.476;7.210;2023-09-19T18:46:17;19.40;13.00
11423;DHT22;5768;51.476;7.210;2023-09-19T18:51:21;19.30;12.90
11423;DHT22;5768;51.476;7.210;2023-09-19T18:56:25;19.20;13.00
11423;DHT22;5768;51.476;7.210;2023-09-19T19:01:27;19.20;13.00
11423;DHT22;5768;51.476;7.210;2023-09-19T19:06:32;19.20;13.00
11423;DHT22;5768;51.476;7.210;2023-09-19T19:11:35;19.10;13.10
11423;DHT22;5768;51.476;7.210;2023-09-19T19:16:37;18.90;13.10
11423;DHT22;5768;51.476;7.210;2023-09-19T19:21:41;19.00;13.20
11423;DHT22;5768;51.476;7.210;2023-09-19T19:26:44;19.00;13.20
11423;DHT22;5768;51.476;7.210;2023-09-19T19:31:46;18.90;13.20
11423;DHT22;5768;51.476;7.210;2023-09-19T19:36:51;19.00;13.20
11423;DHT22;5768;51.476;7.210;2023-09-19T19:41:53;18.90;13.10
11423;DHT22;5768;51.476;7.210;2023-09-19T19:46:55;18.90;13.20
11423;DHT22;5768;51.476;7.210;2023-09-19T19:51:59;18.90;13.20
11423;DHT22;5768;51.476;7.210;2023-09-19T19:57:01;18.90;13.30
11423;DHT22;5768;51.476;7.210;2023-09-19T20:02:04;19.00;13.30
11423;DHT22;5768;51.476;7.210;2023-09-19T20:07:08;18.90;13.20
11423;DHT22;5768;51.476;7.210;2023-09-19T20:12:11;18.90;13.30
11423;DHT22;5768;51.476;7.210;2023-09-19T20:17:14;19.00;13.30
11423;DHT22;5768;51.476;7.210;2023-09-19T20:22:18;18.80;13.30
11423;DHT22;5768;51.476;7.210;2023-09-19T20:27:20;18.80;13.40
11423;DHT22;5768;51.476;7.210;2023-09-19T20:32:23;18.80;13.40
11423;DHT22;5768;51.476;7.210;2023-09-19T20:37:26;18.80;13.40
11423;DHT22;5768;51.476;7.210;2023-09-19T20:42:30;18.80;13.50
11423;DHT22;5768;51.476;7.210;2023-09-19T20:47:32;18.80;13.50
11423;DHT22;5768;51.476;7.210;2023-09-19T20:52:36;18.80;13.60
11423;DHT22;5768;51.476;7.210;2023-09-19T20:57:39;18.80;13.60
11423;DHT22;5768;51.476;7.210;2023-09-19T21:02:41;18.80;13.60
11423;DHT22;5768;51.476;7.210;2023-09-19T21:07:48;18.80;13.70
11423;DHT22;5768;51.476;7.210;2023-09-19T21:12:52;18.60;13.80
11423;DHT22;5768;51.476;7.210;2023-09-19T21:17:54;18.60;13.90
11423;DHT22;5768;51.476;7.210;2023-09-19T21:22:58;18.60;13.90
11423;DHT22;5768;51.476;7.210;2023-09-19T21:28:01;18.70;14.00
11423;DHT22;5768;51.476;7.210;2023-09-19T21:33:03;18.70;14.00
11423;DHT22;5768;51.476;7.210;2023-09-19T21:38:07;18.70;14.00
11423;DHT22;5768;51.476;7.210;2023-09-19T21:43:12;18.70;14.00
11423;DHT22;5768;51.476;7.210;2023-09-19T21:48:14;18.70;14.10
11423;DHT22;5768;51.476;7.210;2023-09-19T21:53:17;18.60;14.20
11423;DHT22;5768;51.476;7.210;2023-09-19T21:58:20;18.70;14.20
11423;DHT22;5768;51.476;7.210;2023-09-19T22:03:23;18.80;14.20
11423;DHT22;5768;51.476;7.210;2023-09-19T22:08:27;18.70;14.20
11423;DHT22;5768;51.476;7.210;2023-09-19T22:13:29;18.60;14.30
11423;DHT22;5768;51.476;7.210;2023-09-19T22:18:33;18.70;14.30
11423;DHT22;5768;51.476;7.210;2023-09-19T22:23:37;18.60;14.40
11423;DHT22;5768;51.476;7.210;2023-09-19T22:28:42;18.60;14.40
11423;DHT22;5768;51.476;7.210;2023-09-19T22:33:45;18.60;14.40
11423;DHT22;5768;51.476;7.210;2023-09-19T22:38:52;18.60;14.50
11423;DHT22;5768;51.476;7.210;2023-09-19T22:43:54;18.60;14.50
11423;DHT22;5768;51.476;7.210;2023-09-19T22:48:58;18.60;14.50
11423;DHT22;5768;51.476;7.210;2023-09-19T22:54:03;18.60;14.60
11423;DHT22;5768;51.476;7.210;2023-09-19T22:59:11;18.60;14.60
11423;DHT22;5768;51.476;7.210;2023-09-19T23:04:15;18.70;14.60
11423;DHT22;5768;51.476;7.210;2023-09-19T23:09:20;18.80;14.50
11423;DHT22;5768;51.476;7.210;2023-09-19T23:14:24;18.80;14.60
11423;DHT22;5768;51.476;7.210;2023-09-19T23:19:33;18.80;14.60
11423;DHT22;5768;51.476;7.210;2023-09-19T23:24:37;18.80;14.60
11423;DHT22;5768;51.476;7.210;2023-09-19T23:29:41;18.90;14.60
11423;DHT22;5768;51.476;7.210;2023-09-19T23:34:44;18.90;14.70
11423;DHT22;5768;51.476;7.210;2023-09-19T23:39:50;18.90;14.60
11423;DHT22;5768;51.476;7.210;2023-09-19T23:44:52;18.90;14.70
11423;DHT22;5768;51.476;7.210;2023-09-19T23:49:55;19.00;14.70
11423;DHT22;5768;51.476;7.210;2023-09-19T23:54:59;18.90;14.80
